createdAt,value
2019-05-02T00:01:46.586Z,53.35
2019-05-02T00:04:20.099Z,53.16
2019-05-02T00:06:42.976Z,54.77
2019-05-02T00:09:11.187Z,54.66
2019-05-02T00:11:37.962Z,54.69
2019-05-02T00:14:04.541Z,53.28
2019-05-02T00:16:31.135Z,54.40
2019-05-02T00:18:57.718Z,54.33
2019-05-02T00:21:24.307Z,54.39
2019-05-02T00:23:50.882Z,53.80
2019-05-02T00:26:17.485Z,53.94
2019-05-02T00:28:47.931Z,54.72
2019-05-02T00:31:12.878Z,55.10
2019-05-02T00:33:39.646Z,53.78
2019-05-02T00:36:06.262Z,55.65
2019-05-02T00:38:33.399Z,55.65
2019-05-02T00:41:02.274Z,54.31
2019-05-02T00:43:34.314Z,55.30
2019-05-02T00:45:59.827Z,55.51
2019-05-02T00:48:26.108Z,54.59
2019-05-02T00:50:52.715Z,55.16
2019-05-02T00:53:19.284Z,54.92
2019-05-02T00:55:45.910Z,55.66
2019-05-02T00:58:12.481Z,54.66
2019-05-02T01:00:39.080Z,54.87
2019-05-02T01:03:05.648Z,55.18
2019-05-02T01:05:33.839Z,55.33
2019-05-02T01:08:01.028Z,55.12
2019-05-02T01:10:28.886Z,55.83
2019-05-02T01:12:55.459Z,55.33
2019-05-02T01:15:22.029Z,55.95
2019-05-02T01:17:48.633Z,55.39
2019-05-02T01:20:15.230Z,55.66
2019-05-02T01:22:41.824Z,55.33
2019-05-02T01:25:14.944Z,56.04
2019-05-02T01:27:41.249Z,55.78
2019-05-02T01:30:05.880Z,56.46
2019-05-02T01:32:33.366Z,55.87
2019-05-02T01:34:59.936Z,56.49
2019-05-02T01:37:26.548Z,56.04
2019-05-02T01:39:53.126Z,57.06
2019-05-02T01:42:19.734Z,56.96
2019-05-02T01:44:46.303Z,56.74
2019-05-02T01:47:12.919Z,56.53
2019-05-02T01:49:39.508Z,57.34
2019-05-02T01:52:06.084Z,57.12
2019-05-02T01:54:32.657Z,57.12
2019-05-02T01:56:59.273Z,56.60
2019-05-02T01:59:29.155Z,56.84
2019-05-02T02:01:57.905Z,57.35
2019-05-02T02:04:22.512Z,57.02
2019-05-02T02:06:49.125Z,56.64
2019-05-02T02:09:15.698Z,57.78
2019-05-02T02:11:42.311Z,57.31
2019-05-02T02:14:12.901Z,57.82
2019-05-02T02:16:39.231Z,58.22
2019-05-02T02:19:05.627Z,58.00
2019-05-02T02:21:32.258Z,56.91
2019-05-02T02:23:58.837Z,57.84
2019-05-02T02:26:25.411Z,58.29
2019-05-02T02:28:52.027Z,57.83
2019-05-02T02:31:18.608Z,57.67
2019-05-02T02:33:48.104Z,58.03
2019-05-02T02:36:13.512Z,57.93
2019-05-02T02:38:40.105Z,57.88
2019-05-02T02:41:12.995Z,57.87
2019-05-02T02:43:35.233Z,58.60
2019-05-02T02:46:01.886Z,57.91
2019-05-02T02:48:33.872Z,58.76
2019-05-02T02:50:56.800Z,58.74
2019-05-02T02:53:24.186Z,58.10
2019-05-02T02:56:00.825Z,59.14
2019-05-02T02:58:20.128Z,58.98
2019-05-02T03:00:47.644Z,59.63
2019-05-02T03:03:20.698Z,60.04
2019-05-02T03:05:43.463Z,59.43
2019-05-02T03:08:10.146Z,60.82
2019-05-02T03:10:39.877Z,58.82
2019-05-02T03:13:05.049Z,59.00
2019-05-02T03:15:31.630Z,59.83
2019-05-02T03:17:59.911Z,60.19
2019-05-02T03:20:26.546Z,60.99
2019-05-02T03:22:53.329Z,60.46
2019-05-02T03:25:27.038Z,60.29
2019-05-02T03:27:48.244Z,60.30
2019-05-02T03:30:28.731Z,60.07
2019-05-02T03:33:03.409Z,59.82
2019-05-02T03:35:17.979Z,59.80
2019-05-02T03:37:44.731Z,60.97
2019-05-02T03:40:08.122Z,60.51
2019-05-02T03:42:43.660Z,60.49
2019-05-02T03:45:04.968Z,59.43
2019-05-02T03:47:36.686Z,59.94
2019-05-02T03:49:59.685Z,59.41
2019-05-02T03:52:26.251Z,59.83
2019-05-02T03:54:52.901Z,59.00
2019-05-02T03:57:31.679Z,59.76
2019-05-02T03:59:47.856Z,59.43
2019-05-02T04:02:20.476Z,59.59
2019-05-02T04:04:42.790Z,59.20
2019-05-02T04:07:09.366Z,59.26
2019-05-02T04:09:42.008Z,58.09
2019-05-02T04:12:04.282Z,58.91
2019-05-02T04:14:38.107Z,58.88
2019-05-02T04:16:59.479Z,58.66
2019-05-02T04:19:28.615Z,57.99
2019-05-02T04:21:54.983Z,58.16
2019-05-02T04:24:21.772Z,58.01
2019-05-02T04:26:53.831Z,57.66
2019-05-02T04:29:16.678Z,57.51
2019-05-02T04:31:43.264Z,57.05
2019-05-02T04:34:15.133Z,57.11
2019-05-02T04:36:38.172Z,57.04
2019-05-02T04:39:05.719Z,56.73
2019-05-02T04:41:34.313Z,56.58
2019-05-02T04:44:01.754Z,56.60
2019-05-02T04:46:31.192Z,56.72
2019-05-02T04:48:58.904Z,56.51
2019-05-02T04:51:27.629Z,56.63
2019-05-02T04:53:53.523Z,56.48
2019-05-02T04:56:20.093Z,56.00
2019-05-02T04:58:49.398Z,55.99
2019-05-02T05:01:15.010Z,55.89
2019-05-02T05:03:41.614Z,56.12
2019-05-02T05:06:12.193Z,55.99
2019-05-02T05:08:38.838Z,55.86
2019-05-02T05:11:04.811Z,55.56
2019-05-02T05:13:31.422Z,55.83
2019-05-02T05:15:58.000Z,55.77
2019-05-02T05:18:24.573Z,55.71
2019-05-02T05:20:52.909Z,55.87
2019-05-02T05:23:21.536Z,55.37
2019-05-02T05:25:50.415Z,55.68
2019-05-02T05:28:19.827Z,55.63
2019-05-02T05:30:45.486Z,55.41
2019-05-02T05:33:12.834Z,55.42
2019-05-02T05:35:43.309Z,55.41
2019-05-02T05:38:07.849Z,55.40
2019-05-02T05:40:34.518Z,55.27
2019-05-02T05:43:02.665Z,55.12
2019-05-02T05:45:29.421Z,54.78
2019-05-02T05:47:57.491Z,55.05
2019-05-02T05:50:24.336Z,54.57
2019-05-02T05:52:51.958Z,54.39
2019-05-02T05:55:24.041Z,54.12
2019-05-02T05:57:49.747Z,53.99
2019-05-02T06:00:18.828Z,53.92
2019-05-02T06:02:53.790Z,53.57
2019-05-02T06:05:12.094Z,53.42
2019-05-02T06:07:41.891Z,53.25
2019-05-02T06:10:07.919Z,52.83
2019-05-02T06:12:35.625Z,52.16
2019-05-02T06:15:03.812Z,51.20
2019-05-02T06:17:30.608Z,51.01
2019-05-02T06:19:57.230Z,50.63
2019-05-02T06:22:24.686Z,50.48
2019-05-02T06:24:52.221Z,50.10
2019-05-02T06:27:20.834Z,49.69
2019-05-02T06:29:51.194Z,49.26
2019-05-02T06:32:19.272Z,49.45
2019-05-02T06:34:46.347Z,48.96
2019-05-02T06:37:13.599Z,49.12
2019-05-02T06:39:40.514Z,48.18
2019-05-02T06:42:07.089Z,48.61
2019-05-02T06:44:33.707Z,48.60
2019-05-02T06:47:04.404Z,48.44
2019-05-02T06:49:28.579Z,48.38
2019-05-02T06:51:56.204Z,48.30
2019-05-02T06:54:24.074Z,48.25
2019-05-02T06:56:50.856Z,48.20
2019-05-02T06:59:18.458Z,48.20
2019-05-02T07:01:45.769Z,47.76
2019-05-02T07:04:12.360Z,47.82
2019-05-02T07:06:50.054Z,47.82
2019-05-02T07:09:07.432Z,47.71
2019-05-02T07:11:38.908Z,47.58
2019-05-02T07:14:13.180Z,47.26
2019-05-02T07:16:38.394Z,47.08
2019-05-02T07:18:59.216Z,46.98
2019-05-02T07:21:25.822Z,46.38
2019-05-02T07:23:53.796Z,46.31
2019-05-02T07:26:22.900Z,46.30
2019-05-02T07:28:49.011Z,46.01
2019-05-02T07:31:15.626Z,45.91
2019-05-02T07:33:42.204Z,45.78
2019-05-02T07:36:08.829Z,45.75
2019-05-02T07:38:35.408Z,45.74
2019-05-02T07:41:02.008Z,45.55
2019-05-02T07:43:28.568Z,45.81
2019-05-02T07:45:55.178Z,45.66
2019-05-02T07:48:21.766Z,45.13
2019-05-02T07:50:48.483Z,45.20
2019-05-02T07:53:15.065Z,45.15
2019-05-02T07:55:42.716Z,44.61
2019-05-02T07:58:09.422Z,44.70
2019-05-02T08:00:37.038Z,44.65
2019-05-02T08:03:05.145Z,44.21
2019-05-02T08:05:31.910Z,44.59
2019-05-02T08:07:58.498Z,44.00
2019-05-02T08:10:25.100Z,43.98
2019-05-02T08:12:51.671Z,43.49
2019-05-02T08:15:18.263Z,43.19
2019-05-02T08:17:53.117Z,43.00
2019-05-02T08:20:13.605Z,42.52
2019-05-02T08:22:44.043Z,42.06
2019-05-02T08:25:10.875Z,42.35
2019-05-02T08:27:38.155Z,42.08
2019-05-02T08:30:05.932Z,42.40
2019-05-02T08:32:32.720Z,42.29
2019-05-02T08:34:59.296Z,41.87
2019-05-02T08:37:25.886Z,41.33
2019-05-02T08:39:52.459Z,41.40
2019-05-02T08:42:19.067Z,41.27
2019-05-02T08:44:51.370Z,41.32
2019-05-02T08:47:19.057Z,41.17
2019-05-02T08:49:42.549Z,40.77
2019-05-02T08:52:09.363Z,40.54
2019-05-02T08:54:35.931Z,39.81
2019-05-02T08:57:02.553Z,40.10
2019-05-02T08:59:29.123Z,40.23
2019-05-02T09:01:55.819Z,40.22
2019-05-02T09:04:24.235Z,40.36
2019-05-02T09:06:53.137Z,40.08
2019-05-02T09:09:22.713Z,39.96
2019-05-02T09:11:57.539Z,39.72
2019-05-02T09:14:15.670Z,38.12
2019-05-02T09:16:42.707Z,38.77
2019-05-02T09:19:13.494Z,37.50
2019-05-02T09:21:37.764Z,38.01
2019-05-02T09:24:08.575Z,37.59
2019-05-02T09:26:37.924Z,37.88
2019-05-02T09:29:05.417Z,38.15
2019-05-02T09:31:31.953Z,37.53
2019-05-02T09:33:58.685Z,37.53
2019-05-02T09:36:25.301Z,37.87
2019-05-02T09:38:55.938Z,37.45
2019-05-02T09:41:22.098Z,37.49
2019-05-02T09:43:48.525Z,37.22
2019-05-02T09:46:16.584Z,37.08
2019-05-02T09:48:43.406Z,36.83
2019-05-02T09:51:12.889Z,34.93
2019-05-02T09:53:38.325Z,35.10
2019-05-02T09:56:04.905Z,34.94
2019-05-02T09:58:32.040Z,34.88
2019-05-02T10:00:58.762Z,34.44
2019-05-02T10:03:25.385Z,33.67
2019-05-02T10:05:52.370Z,33.66
2019-05-02T10:08:19.138Z,33.26
2019-05-02T10:10:46.219Z,31.49
2019-05-02T10:13:12.994Z,31.79
2019-05-02T10:15:41.955Z,31.82
2019-05-02T10:18:11.487Z,31.26
2019-05-02T10:20:36.702Z,30.11
2019-05-02T10:23:03.347Z,28.46
2019-05-02T10:25:32.850Z,28.03
2019-05-02T10:27:58.259Z,26.58
2019-05-02T10:30:24.840Z,27.02
2019-05-02T10:32:55.576Z,27.04
2019-05-02T10:35:19.747Z,26.95
2019-05-02T10:37:46.347Z,26.81
2019-05-02T10:40:17.044Z,26.93
2019-05-02T10:42:43.632Z,26.49
2019-05-02T10:45:13.040Z,26.00
2019-05-02T10:47:38.555Z,25.11
2019-05-02T10:50:05.128Z,24.36
2019-05-02T10:52:34.167Z,24.06
2019-05-02T10:55:02.506Z,22.70
2019-05-02T10:57:28.360Z,23.53
2019-05-02T10:59:56.269Z,23.34
2019-05-02T11:02:22.934Z,22.74
2019-05-02T11:04:49.510Z,22.82
2019-05-02T11:07:16.999Z,22.90
2019-05-02T11:09:44.453Z,22.64
2019-05-02T11:12:11.879Z,22.72
2019-05-02T11:14:38.611Z,22.56
2019-05-02T11:17:08.759Z,22.38
2019-05-02T11:19:33.537Z,21.13
2019-05-02T11:22:00.108Z,21.34
2019-05-02T11:24:26.698Z,21.14
2019-05-02T11:26:53.315Z,21.09
2019-05-02T11:29:20.045Z,20.85
2019-05-02T11:31:46.609Z,20.20
2019-05-02T11:34:13.264Z,20.21
2019-05-02T11:36:41.547Z,19.04
2019-05-02T11:39:15.949Z,19.14
2019-05-02T11:41:36.501Z,19.78
2019-05-02T11:44:03.158Z,19.95
2019-05-02T11:46:29.860Z,20.13
2019-05-02T11:48:58.673Z,20.38
2019-05-02T11:51:24.775Z,20.48
2019-05-02T11:53:52.631Z,20.29
2019-05-02T11:56:19.551Z,18.84
2019-05-02T11:58:48.078Z,19.25
2019-05-02T12:01:14.570Z,19.42
2019-05-02T12:03:42.335Z,19.75
2019-05-02T12:06:12.209Z,19.71
2019-05-02T12:08:39.425Z,19.61
2019-05-02T12:11:08.470Z,18.45
2019-05-02T12:13:33.972Z,18.14
2019-05-02T12:16:02.554Z,17.71
2019-05-02T12:18:28.873Z,17.37
2019-05-02T12:20:55.451Z,17.23
2019-05-02T12:23:22.614Z,16.91
2019-05-02T12:25:49.432Z,16.49
2019-05-02T12:28:16.001Z,15.97
2019-05-02T12:30:42.595Z,16.33
2019-05-02T12:33:09.170Z,16.04
2019-05-02T12:35:35.774Z,16.04
2019-05-02T12:38:02.752Z,16.62
2019-05-02T12:40:29.522Z,17.21
2019-05-02T12:42:56.102Z,17.68
2019-05-02T12:45:22.685Z,18.04
2019-05-02T12:47:49.253Z,17.62
2019-05-02T12:50:18.363Z,16.71
2019-05-02T12:52:44.930Z,16.45
2019-05-02T12:55:12.756Z,16.32
2019-05-02T12:57:39.497Z,15.94
2019-05-02T13:00:06.088Z,16.34
2019-05-02T13:02:32.706Z,16.23
2019-05-02T13:04:59.324Z,16.55
2019-05-02T13:07:25.911Z,16.31
2019-05-02T13:09:52.875Z,16.41
2019-05-02T13:12:19.569Z,16.38
2019-05-02T13:14:46.162Z,16.82
2019-05-02T13:17:12.729Z,16.82
2019-05-02T13:19:41.375Z,16.65
2019-05-02T13:22:07.640Z,16.84
2019-05-02T13:24:34.420Z,17.34
2019-05-02T13:27:03.991Z,17.81
2019-05-02T13:29:29.297Z,18.62
2019-05-02T13:31:55.867Z,19.37
2019-05-02T13:34:22.452Z,19.98
2019-05-02T13:36:49.052Z,20.34
2019-05-02T13:39:15.624Z,20.64
2019-05-02T13:41:42.783Z,20.98
2019-05-02T13:44:09.496Z,20.79
2019-05-02T13:46:36.151Z,20.49
2019-05-02T13:49:02.732Z,20.37
2019-05-02T13:51:29.328Z,20.55
2019-05-02T13:53:55.898Z,20.74
2019-05-02T13:56:22.515Z,21.24
2019-05-02T13:58:49.093Z,21.52
2019-05-02T14:01:15.706Z,21.76
2019-05-02T14:03:42.267Z,21.89
2019-05-02T14:06:08.895Z,21.89
2019-05-02T14:08:37.048Z,21.97
2019-05-02T14:11:03.875Z,21.59
2019-05-02T14:13:31.597Z,21.42
2019-05-02T14:15:58.445Z,21.68
2019-05-02T14:18:29.203Z,22.08
2019-05-02T14:20:53.358Z,22.48
2019-05-02T14:23:21.699Z,22.53
2019-05-02T14:25:48.926Z,22.83
2019-05-02T14:28:15.504Z,21.46
2019-05-02T14:30:46.129Z,21.18
2019-05-02T14:33:11.754Z,20.78
2019-05-02T14:35:38.486Z,20.94
2019-05-02T14:38:05.056Z,21.41
2019-05-02T14:40:31.990Z,21.67
2019-05-02T14:43:03.492Z,21.87
2019-05-02T14:45:31.153Z,21.76
2019-05-02T14:48:00.355Z,21.71
2019-05-02T14:50:26.516Z,21.73
2019-05-02T14:52:51.965Z,21.99
2019-05-02T14:55:22.214Z,22.16
2019-05-02T14:57:46.910Z,22.24
2019-05-02T15:00:13.481Z,22.65
2019-05-02T15:02:47.175Z,22.66
2019-05-02T15:05:08.359Z,22.78
2019-05-02T15:07:34.975Z,22.81
2019-05-02T15:10:05.407Z,22.57
2019-05-02T15:12:29.863Z,22.53
2019-05-02T15:14:58.695Z,22.67
2019-05-02T15:17:28.066Z,22.88
2019-05-02T15:19:53.056Z,22.95
2019-05-02T15:22:22.841Z,22.67
2019-05-02T15:24:49.418Z,22.71
2019-05-02T15:27:17.724Z,22.60
2019-05-02T15:29:44.331Z,22.66
2019-05-02T15:32:12.672Z,22.73
2019-05-02T15:34:46.269Z,23.18
2019-05-02T15:37:07.571Z,23.54
2019-05-02T15:42:02.474Z,23.64
2019-05-02T15:44:29.048Z,23.71
2019-05-02T15:46:58.432Z,23.71
2019-05-02T15:49:23.952Z,23.68
2019-05-02T15:51:52.263Z,23.99
2019-05-02T15:54:20.267Z,24.42
2019-05-02T15:56:54.108Z,24.50
2019-05-02T15:59:15.527Z,24.44
2019-05-02T16:01:47.340Z,24.62
2019-05-02T16:04:10.451Z,24.85
2019-05-02T16:06:37.024Z,25.10
2019-05-02T16:09:03.615Z,25.33
2019-05-02T16:11:32.081Z,25.53
2019-05-02T16:13:58.507Z,25.68
2019-05-02T16:16:25.083Z,25.57
2019-05-02T16:18:52.512Z,25.68
2019-05-02T16:21:28.411Z,25.59
2019-05-02T16:23:47.793Z,25.64
2019-05-02T16:26:14.373Z,26.00
2019-05-02T16:28:42.092Z,25.79
2019-05-02T16:31:09.286Z,26.04
2019-05-02T16:33:35.874Z,26.33
2019-05-02T16:36:02.764Z,26.19
2019-05-02T16:38:32.351Z,26.37
2019-05-02T16:41:04.046Z,26.52
2019-05-02T16:43:26.046Z,26.54
2019-05-02T16:45:52.661Z,26.71
2019-05-02T16:48:19.333Z,26.85
2019-05-02T16:50:45.915Z,27.02
2019-05-02T16:53:12.527Z,27.10
2019-05-02T16:55:39.095Z,27.09
2019-05-02T16:58:07.242Z,27.29
2019-05-02T17:00:36.838Z,27.43
2019-05-02T17:03:03.820Z,27.73
2019-05-02T17:05:32.463Z,27.79
2019-05-02T17:07:58.980Z,28.30
2019-05-02T17:10:25.591Z,28.02
2019-05-02T17:12:56.317Z,28.17
2019-05-02T17:15:21.956Z,28.26
2019-05-02T17:17:48.827Z,28.49
2019-05-02T17:20:16.773Z,28.41
2019-05-02T17:22:43.913Z,28.61
2019-05-02T17:25:12.335Z,28.61
2019-05-02T17:27:39.111Z,28.74
2019-05-02T17:30:05.702Z,28.85
2019-05-02T17:32:34.152Z,28.82
2019-05-02T17:35:02.654Z,28.96
2019-05-02T17:37:28.914Z,28.97
2019-05-02T17:39:55.520Z,29.04
2019-05-02T17:42:25.706Z,29.22
2019-05-02T17:44:51.801Z,29.26
2019-05-02T17:47:18.742Z,29.22
2019-05-02T17:49:45.343Z,29.51
2019-05-02T17:52:19.917Z,29.48
2019-05-02T17:54:42.233Z,29.57
2019-05-02T17:57:08.546Z,29.58
2019-05-02T17:59:37.557Z,29.76
2019-05-02T18:02:06.653Z,29.90
2019-05-02T18:04:32.470Z,29.91
2019-05-02T18:06:59.225Z,29.94
2019-05-02T18:09:26.398Z,30.03
2019-05-02T18:11:54.151Z,30.37
2019-05-02T18:14:22.090Z,30.39
2019-05-02T18:16:52.013Z,30.71
2019-05-02T18:19:21.836Z,30.92
2019-05-02T18:21:45.680Z,30.94
2019-05-02T18:24:12.640Z,30.97
2019-05-02T18:26:39.438Z,31.04
2019-05-02T18:29:06.953Z,31.19
2019-05-02T18:31:34.833Z,31.46
2019-05-02T18:34:01.997Z,31.50
2019-05-02T18:36:28.596Z,31.65
2019-05-02T18:39:00.566Z,31.89
2019-05-02T18:41:23.530Z,32.12
2019-05-02T18:43:52.023Z,32.36
2019-05-02T18:46:19.947Z,32.43
2019-05-02T18:48:49.135Z,32.63
2019-05-02T18:51:17.146Z,32.54
2019-05-02T18:53:43.317Z,32.68
2019-05-02T18:56:09.935Z,32.77
2019-05-02T18:58:41.469Z,32.98
2019-05-02T19:01:08.565Z,33.13
2019-05-02T19:03:33.409Z,33.03
2019-05-02T19:06:02.012Z,33.10
2019-05-02T19:08:31.642Z,33.28
2019-05-02T19:11:08.815Z,33.24
2019-05-02T19:13:25.177Z,33.25
2019-05-02T19:15:53.460Z,33.71
2019-05-02T19:18:20.172Z,33.89
2019-05-02T19:20:52.549Z,34.03
2019-05-02T19:23:15.167Z,34.25
2019-05-02T19:25:41.787Z,34.56
2019-05-02T19:28:08.359Z,34.65
2019-05-02T19:30:34.957Z,34.85
2019-05-02T19:33:03.707Z,34.73
2019-05-02T19:35:29.911Z,34.86
2019-05-02T19:37:56.483Z,35.11
2019-05-02T19:40:26.872Z,35.07
2019-05-02T19:42:52.711Z,35.35
2019-05-02T19:45:19.485Z,35.70
2019-05-02T19:47:48.942Z,35.75
2019-05-02T19:50:14.405Z,35.65
2019-05-02T19:52:42.882Z,35.52
2019-05-02T19:55:14.188Z,35.67
2019-05-02T19:57:37.615Z,35.91
2019-05-02T20:00:06.461Z,36.11
2019-05-02T20:02:32.823Z,36.44
2019-05-02T20:05:02.688Z,36.59
2019-05-02T20:07:29.155Z,36.68
2019-05-02T20:09:55.721Z,36.81
2019-05-02T20:12:22.324Z,37.04
2019-05-02T20:14:48.916Z,37.20
2019-05-02T20:17:20.225Z,37.22
2019-05-02T20:19:43.841Z,37.54
2019-05-02T20:22:11.846Z,37.80
2019-05-02T20:24:38.600Z,37.97
2019-05-02T20:27:05.214Z,38.23
2019-05-02T20:29:32.131Z,38.26
2019-05-02T20:31:58.983Z,38.05
2019-05-02T20:34:25.554Z,38.18
2019-05-02T20:36:52.172Z,38.18
2019-05-02T20:39:18.758Z,38.36
2019-05-02T20:41:45.372Z,38.69
2019-05-02T20:44:12.294Z,38.96
2019-05-02T20:46:39.033Z,39.24
2019-05-02T20:49:05.605Z,39.45
2019-05-02T20:51:32.270Z,39.86
2019-05-02T20:53:58.848Z,39.93
2019-05-02T20:56:25.469Z,40.17
2019-05-02T20:58:52.604Z,40.07
2019-05-02T21:01:20.865Z,40.40
2019-05-02T21:03:47.442Z,40.29
2019-05-02T21:06:15.933Z,40.51
2019-05-02T21:08:42.510Z,40.50
2019-05-02T21:11:09.132Z,40.57
2019-05-02T21:13:37.640Z,40.70
2019-05-02T21:16:04.024Z,40.68
2019-05-02T21:18:32.646Z,40.79
2019-05-02T21:20:58.926Z,41.22
2019-05-02T21:23:25.489Z,41.24
2019-05-02T21:25:52.481Z,41.32
2019-05-02T21:28:19.294Z,41.83
2019-05-02T21:30:45.869Z,42.13
2019-05-02T21:33:12.465Z,41.95
2019-05-02T21:35:39.311Z,42.01
2019-05-02T21:38:05.909Z,42.16
2019-05-02T21:40:32.692Z,42.20
2019-05-02T21:42:59.479Z,42.04
2019-05-02T21:45:26.050Z,42.56
2019-05-02T21:47:52.820Z,43.43
2019-05-02T21:50:19.406Z,43.63
2019-05-02T21:52:45.999Z,43.90
2019-05-02T21:55:12.574Z,43.60
2019-05-02T21:57:39.183Z,43.65
2019-05-02T22:00:05.785Z,43.72
2019-05-02T22:02:32.416Z,43.79
2019-05-02T22:04:59.003Z,43.79
2019-05-02T22:07:25.609Z,44.13
2019-05-02T22:09:53.627Z,44.28
2019-05-02T22:12:22.419Z,43.96
2019-05-02T22:14:48.592Z,44.17
2019-05-02T22:17:17.109Z,44.29
2019-05-02T22:19:43.516Z,44.42
2019-05-02T22:22:12.103Z,44.66
2019-05-02T22:24:38.418Z,44.71
2019-05-02T22:27:05.034Z,45.15
2019-05-02T22:29:32.490Z,45.51
2019-05-02T22:31:59.161Z,45.45
2019-05-02T22:34:25.898Z,45.60
2019-05-02T22:36:54.353Z,45.88
2019-05-02T22:39:22.169Z,46.13
2019-05-02T22:41:48.947Z,46.13
2019-05-02T22:44:15.552Z,45.95
2019-05-02T22:46:43.168Z,45.88
2019-05-02T22:49:11.883Z,45.93
2019-05-02T22:51:38.516Z,46.30
2019-05-02T22:54:05.104Z,46.31
2019-05-02T22:56:31.782Z,46.26
2019-05-02T22:58:58.375Z,46.62
2019-05-02T23:01:24.949Z,46.88
2019-05-02T23:03:52.445Z,47.34
2019-05-02T23:06:19.222Z,47.06
2019-05-02T23:08:45.827Z,47.06
2019-05-02T23:11:13.011Z,47.26
2019-05-02T23:13:39.686Z,47.45
2019-05-02T23:16:06.269Z,47.24
2019-05-02T23:18:32.879Z,47.51
2019-05-02T23:20:59.457Z,47.63
2019-05-02T23:23:26.057Z,47.64
2019-05-02T23:25:52.666Z,47.96
2019-05-02T23:28:19.280Z,48.08
2019-05-02T23:30:45.857Z,47.85
2019-05-02T23:33:12.989Z,48.60
2019-05-02T23:35:39.719Z,48.49
2019-05-02T23:38:06.320Z,48.82
2019-05-02T23:40:32.911Z,49.89
2019-05-02T23:42:59.526Z,48.80
2019-05-02T23:45:26.110Z,49.16
2019-05-02T23:47:52.888Z,49.40
2019-05-02T23:50:19.572Z,49.43
2019-05-02T23:52:46.143Z,49.32
2019-05-02T23:55:12.759Z,49.56
2019-05-02T23:57:41.868Z,49.80
